sensor_id;sensor_type;location;lat;lon;timestamp;P1;durP1;ratioP1;P2;durP2;ratioP2
22565;SDS011;11449;51.330;19.378;2023-12-20T00:01:19;744.00;;;683.10;;
22565;SDS011;11449;51.330;19.378;2023-12-20T00:06:27;745.10;;;684.70;;
22565;SDS011;11449;51.330;19.378;2023-12-20T00:11:36;774.10;;;711.40;;
22565;SDS011;11449;51.330;19.378;2023-12-20T00:16:43;766.10;;;700.70;;
22565;SDS011;11449;51.330;19.378;2023-12-20T00:21:49;338.20;;;244.30;;
22565;SDS011;11449;51.330;19.378;2023-12-20T00:26:57;275.20;;;172.60;;
22565;SDS011;11449;51.330;19.378;2023-12-20T00:32:01;733.90;;;673.90;;
22565;SDS011;11449;51.330;19.378;2023-12-20T00:37:09;316.20;;;246.90;;
22565;SDS011;11449;51.330;19.378;2023-12-20T00:42:16;284.80;;;179.50;;
22565;SDS011;11449;51.330;19.378;2023-12-20T00:47:19;319.70;;;228.00;;
22565;SDS011;11449;51.330;19.378;2023-12-20T00:52:28;365.60;;;301.30;;
22565;SDS011;11449;51.330;19.378;2023-12-20T00:57:36;342.60;;;227.10;;
22565;SDS011;11449;51.330;19.378;2023-12-20T01:02:45;674.90;;;616.10;;
22565;SDS011;11449;51.330;19.378;2023-12-20T01:07:54;781.80;;;719.30;;
22565;SDS011;11449;51.330;19.378;2023-12-20T01:13:03;806.40;;;743.70;;
22565;SDS011;11449;51.330;19.378;2023-12-20T01:18:10;840.30;;;776.80;;
22565;SDS011;11449;51.330;19.378;2023-12-20T01:23:18;802.70;;;738.10;;
22565;SDS011;11449;51.330;19.378;2023-12-20T01:28:22;854.50;;;788.40;;
22565;SDS011;11449;51.330;19.378;2023-12-20T01:33:33;811.80;;;749.50;;
22565;SDS011;11449;51.330;19.378;2023-12-20T01:38:41;893.70;;;829.20;;
22565;SDS011;11449;51.330;19.378;2023-12-20T01:43:48;830.60;;;768.00;;
22565;SDS011;11449;51.330;19.378;2023-12-20T01:48:56;821.10;;;756.80;;
22565;SDS011;11449;51.330;19.378;2023-12-20T01:54:00;882.30;;;818.10;;
22565;SDS011;11449;51.330;19.378;2023-12-20T01:59:08;868.40;;;805.70;;
22565;SDS011;11449;51.330;19.378;2023-12-20T02:04:16;778.10;;;714.60;;
22565;SDS011;11449;51.330;19.378;2023-12-20T02:09:24;822.60;;;757.40;;
22565;SDS011;11449;51.330;19.378;2023-12-20T02:14:32;320.70;;;230.90;;
22565;SDS011;11449;51.330;19.378;2023-12-20T02:19:40;269.60;;;177.60;;
22565;SDS011;11449;51.330;19.378;2023-12-20T02:24:43;292.10;;;198.60;;
22565;SDS011;11449;51.330;19.378;2023-12-20T02:29:50;336.30;;;237.60;;
22565;SDS011;11449;51.330;19.378;2023-12-20T02:34:58;304.40;;;182.40;;
22565;SDS011;11449;51.330;19.378;2023-12-20T02:40:07;289.80;;;194.20;;
22565;SDS011;11449;51.330;19.378;2023-12-20T02:45:15;375.50;;;266.90;;
22565;SDS011;11449;51.330;19.378;2023-12-20T02:50:23;366.00;;;240.60;;
22565;SDS011;11449;51.330;19.378;2023-12-20T02:55:31;347.20;;;257.50;;
22565;SDS011;11449;51.330;19.378;2023-12-20T03:00:39;272.80;;;185.80;;
22565;SDS011;11449;51.330;19.378;2023-12-20T03:05:48;267.50;;;172.90;;
22565;SDS011;11449;51.330;19.378;2023-12-20T03:10:55;359.50;;;208.50;;
22565;SDS011;11449;51.330;19.378;2023-12-20T03:16:10;283.00;;;178.10;;
22565;SDS011;11449;51.330;19.378;2023-12-20T03:21:15;842.30;;;779.00;;
22565;SDS011;11449;51.330;19.378;2023-12-20T03:26:22;853.50;;;788.00;;
22565;SDS011;11449;51.330;19.378;2023-12-20T03:31:30;866.90;;;800.80;;
22565;SDS011;11449;51.330;19.378;2023-12-20T03:36:38;876.50;;;811.70;;
22565;SDS011;11449;51.330;19.378;2023-12-20T03:41:46;725.00;;;666.40;;
22565;SDS011;11449;51.330;19.378;2023-12-20T03:46:54;717.80;;;659.60;;
22565;SDS011;11449;51.330;19.378;2023-12-20T03:52:01;732.40;;;673.30;;
22565;SDS011;11449;51.330;19.378;2023-12-20T03:57:09;727.60;;;668.20;;
22565;SDS011;11449;51.330;19.378;2023-12-20T04:02:17;635.40;;;579.20;;
22565;SDS011;11449;51.330;19.378;2023-12-20T04:07:25;691.30;;;631.40;;
22565;SDS011;11449;51.330;19.378;2023-12-20T04:12:33;647.60;;;588.60;;
22565;SDS011;11449;51.330;19.378;2023-12-20T04:17:41;683.30;;;625.70;;
22565;SDS011;11449;51.330;19.378;2023-12-20T04:22:45;227.60;;;133.20;;
22565;SDS011;11449;51.330;19.378;2023-12-20T04:27:47;188.00;;;104.20;;
22565;SDS011;11449;51.330;19.378;2023-12-20T04:32:55;276.20;;;170.00;;
22565;SDS011;11449;51.330;19.378;2023-12-20T04:38:03;241.40;;;144.40;;
22565;SDS011;11449;51.330;19.378;2023-12-20T04:43:10;285.70;;;170.80;;
22565;SDS011;11449;51.330;19.378;2023-12-20T04:48:18;304.00;;;190.60;;
22565;SDS011;11449;51.330;19.378;2023-12-20T04:53:26;278.20;;;156.80;;
22565;SDS011;11449;51.330;19.378;2023-12-20T04:58:34;318.70;;;193.70;;
22565;SDS011;11449;51.330;19.378;2023-12-20T05:03:41;222.60;;;133.80;;
22565;SDS011;11449;51.330;19.378;2023-12-20T05:08:49;230.30;;;133.70;;
22565;SDS011;11449;51.330;19.378;2023-12-20T05:13:57;230.60;;;137.20;;
22565;SDS011;11449;51.330;19.378;2023-12-20T05:19:04;253.70;;;173.20;;
22565;SDS011;11449;51.330;19.378;2023-12-20T05:24:14;249.30;;;150.70;;
22565;SDS011;11449;51.330;19.378;2023-12-20T05:29:22;294.00;;;173.10;;
22565;SDS011;11449;51.330;19.378;2023-12-20T05:34:30;317.80;;;204.90;;
22565;SDS011;11449;51.330;19.378;2023-12-20T05:39:37;228.40;;;137.70;;
22565;SDS011;11449;51.330;19.378;2023-12-20T05:44:45;217.30;;;132.10;;
22565;SDS011;11449;51.330;19.378;2023-12-20T05:49:53;290.20;;;176.90;;
22565;SDS011;11449;51.330;19.378;2023-12-20T05:54:56;243.80;;;138.40;;
22565;SDS011;11449;51.330;19.378;2023-12-20T06:00:05;265.40;;;173.20;;
22565;SDS011;11449;51.330;19.378;2023-12-20T06:05:15;219.10;;;117.30;;
22565;SDS011;11449;51.330;19.378;2023-12-20T06:10:22;275.80;;;148.30;;
22565;SDS011;11449;51.330;19.378;2023-12-20T06:15:30;281.20;;;167.30;;
22565;SDS011;11449;51.330;19.378;2023-12-20T06:20:38;227.20;;;135.50;;
22565;SDS011;11449;51.330;19.378;2023-12-20T06:25:45;240.80;;;154.70;;
22565;SDS011;11449;51.330;19.378;2023-12-20T06:30:53;306.20;;;154.60;;
22565;SDS011;11449;51.330;19.378;2023-12-20T06:35:57;310.90;;;189.30;;
22565;SDS011;11449;51.330;19.378;2023-12-20T06:41:05;241.50;;;140.90;;
22565;SDS011;11449;51.330;19.378;2023-12-20T06:46:13;322.70;;;171.40;;
22565;SDS011;11449;51.330;19.378;2023-12-20T06:51:21;276.30;;;154.90;;
22565;SDS011;11449;51.330;19.378;2023-12-20T06:56:32;255.80;;;136.20;;
22565;SDS011;11449;51.330;19.378;2023-12-20T07:01:41;218.10;;;123.20;;
22565;SDS011;11449;51.330;19.378;2023-12-20T07:06:48;217.00;;;125.10;;
22565;SDS011;11449;51.330;19.378;2023-12-20T07:11:59;371.00;;;333.50;;
22565;SDS011;11449;51.330;19.378;2023-12-20T07:17:07;413.40;;;371.80;;
22565;SDS011;11449;51.330;19.378;2023-12-20T07:22:13;448.30;;;404.80;;
22565;SDS011;11449;51.330;19.378;2023-12-20T07:27:21;450.40;;;405.00;;
22565;SDS011;11449;51.330;19.378;2023-12-20T07:32:29;324.00;;;186.90;;
22565;SDS011;11449;51.330;19.378;2023-12-20T07:37:36;236.60;;;143.60;;
22565;SDS011;11449;51.330;19.378;2023-12-20T07:42:44;229.30;;;142.50;;
22565;SDS011;11449;51.330;19.378;2023-12-20T07:47:52;220.00;;;123.10;;
22565;SDS011;11449;51.330;19.378;2023-12-20T07:52:59;201.30;;;115.10;;
22565;SDS011;11449;51.330;19.378;2023-12-20T07:58:08;218.20;;;120.50;;
22565;SDS011;11449;51.330;19.378;2023-12-20T08:03:16;213.50;;;120.80;;
22565;SDS011;11449;51.330;19.378;2023-12-20T08:08:24;292.90;;;165.10;;
22565;SDS011;11449;51.330;19.378;2023-12-20T08:13:31;276.90;;;148.20;;
22565;SDS011;11449;51.330;19.378;2023-12-20T08:18:39;200.60;;;113.50;;
22565;SDS011;11449;51.330;19.378;2023-12-20T08:23:47;196.00;;;107.70;;
22565;SDS011;11449;51.330;19.378;2023-12-20T08:28:55;226.20;;;132.80;;
22565;SDS011;11449;51.330;19.378;2023-12-20T08:34:02;235.00;;;143.20;;
22565;SDS011;11449;51.330;19.378;2023-12-20T08:39:11;284.80;;;129.00;;
22565;SDS011;11449;51.330;19.378;2023-12-20T08:44:19;210.90;;;116.50;;
22565;SDS011;11449;51.330;19.378;2023-12-20T08:49:27;196.90;;;112.30;;
22565;SDS011;11449;51.330;19.378;2023-12-20T08:54:30;395.70;;;355.30;;
22565;SDS011;11449;51.330;19.378;2023-12-20T08:59:38;367.10;;;297.80;;
22565;SDS011;11449;51.330;19.378;2023-12-20T09:04:46;310.40;;;222.00;;
22565;SDS011;11449;51.330;19.378;2023-12-20T09:09:53;316.90;;;283.00;;
22565;SDS011;11449;51.330;19.378;2023-12-20T09:15:01;249.90;;;210.20;;
22565;SDS011;11449;51.330;19.378;2023-12-20T09:20:10;264.90;;;230.80;;
22565;SDS011;11449;51.330;19.378;2023-12-20T09:25:18;266.10;;;220.40;;
22565;SDS011;11449;51.330;19.378;2023-12-20T09:30:26;192.10;;;108.10;;
22565;SDS011;11449;51.330;19.378;2023-12-20T09:35:29;283.50;;;161.70;;
22565;SDS011;11449;51.330;19.378;2023-12-20T09:40:37;289.60;;;173.10;;
22565;SDS011;11449;51.330;19.378;2023-12-20T09:45:45;293.50;;;167.10;;
22565;SDS011;11449;51.330;19.378;2023-12-20T09:50:53;329.00;;;194.10;;
22565;SDS011;11449;51.330;19.378;2023-12-20T09:56:01;288.10;;;178.30;;
22565;SDS011;11449;51.330;19.378;2023-12-20T10:01:10;299.00;;;174.90;;
22565;SDS011;11449;51.330;19.378;2023-12-20T10:06:18;250.90;;;166.30;;
22565;SDS011;11449;51.330;19.378;2023-12-20T10:11:26;223.60;;;136.20;;
22565;SDS011;11449;51.330;19.378;2023-12-20T10:16:35;314.00;;;210.40;;
22565;SDS011;11449;51.330;19.378;2023-12-20T10:21:43;672.70;;;613.10;;
22565;SDS011;11449;51.330;19.378;2023-12-20T10:27:01;668.90;;;612.00;;
22565;SDS011;11449;51.330;19.378;2023-12-20T10:32:29;652.20;;;596.30;;
22565;SDS011;11449;51.330;19.378;2023-12-20T10:37:37;661.00;;;552.40;;
22565;SDS011;11449;51.330;19.378;2023-12-20T10:42:45;709.70;;;648.60;;
22565;SDS011;11449;51.330;19.378;2023-12-20T10:47:53;717.70;;;659.40;;
22565;SDS011;11449;51.330;19.378;2023-12-20T10:53:00;744.10;;;684.10;;
22565;SDS011;11449;51.330;19.378;2023-12-20T10:58:08;527.60;;;478.20;;
22565;SDS011;11449;51.330;19.378;2023-12-20T11:03:16;583.70;;;532.60;;
22565;SDS011;11449;51.330;19.378;2023-12-20T11:08:27;603.20;;;549.30;;
22565;SDS011;11449;51.330;19.378;2023-12-20T11:13:37;588.50;;;534.60;;
22565;SDS011;11449;51.330;19.378;2023-12-20T11:18:48;476.80;;;429.80;;
22565;SDS011;11449;51.330;19.378;2023-12-20T11:23:58;252.70;;;136.60;;
22565;SDS011;11449;51.330;19.378;2023-12-20T11:34:33;226.80;;;136.40;;
22565;SDS011;11449;51.330;19.378;2023-12-20T11:39:41;364.50;;;210.80;;
22565;SDS011;11449;51.330;19.378;2023-12-20T11:44:50;219.20;;;127.30;;
22565;SDS011;11449;51.330;19.378;2023-12-20T11:49:57;214.60;;;129.20;;
22565;SDS011;11449;51.330;19.378;2023-12-20T11:55:08;234.60;;;141.70;;
22565;SDS011;11449;51.330;19.378;2023-12-20T12:00:16;210.30;;;113.10;;
22565;SDS011;11449;51.330;19.378;2023-12-20T12:05:25;218.80;;;120.70;;
22565;SDS011;11449;51.330;19.378;2023-12-20T12:10:29;193.40;;;107.90;;
22565;SDS011;11449;51.330;19.378;2023-12-20T12:15:37;248.40;;;130.60;;
22565;SDS011;11449;51.330;19.378;2023-12-20T12:20:45;288.00;;;156.10;;
22565;SDS011;11449;51.330;19.378;2023-12-20T12:25:53;192.60;;;98.10;;
22565;SDS011;11449;51.330;19.378;2023-12-20T12:31:02;431.90;;;388.70;;
22565;SDS011;11449;51.330;19.378;2023-12-20T12:36:10;466.30;;;421.10;;
22565;SDS011;11449;51.330;19.378;2023-12-20T12:41:19;483.80;;;435.60;;
22565;SDS011;11449;51.330;19.378;2023-12-20T12:46:27;530.90;;;481.30;;
22565;SDS011;11449;51.330;19.378;2023-12-20T12:51:35;600.70;;;546.10;;
22565;SDS011;11449;51.330;19.378;2023-12-20T12:56:43;538.90;;;484.80;;
22565;SDS011;11449;51.330;19.378;2023-12-20T13:01:51;203.60;;;106.60;;
22565;SDS011;11449;51.330;19.378;2023-12-20T13:06:59;195.60;;;110.70;;
22565;SDS011;11449;51.330;19.378;2023-12-20T13:12:07;208.10;;;114.40;;
22565;SDS011;11449;51.330;19.378;2023-12-20T13:17:15;181.50;;;96.30;;
22565;SDS011;11449;51.330;19.378;2023-12-20T13:22:24;245.70;;;159.10;;
22565;SDS011;11449;51.330;19.378;2023-12-20T13:27:27;252.20;;;160.60;;
22565;SDS011;11449;51.330;19.378;2023-12-20T13:32:35;278.80;;;168.40;;
22565;SDS011;11449;51.330;19.378;2023-12-20T13:37:43;342.90;;;221.30;;
22565;SDS011;11449;51.330;19.378;2023-12-20T13:42:52;259.40;;;162.30;;
22565;SDS011;11449;51.330;19.378;2023-12-20T13:47:59;264.60;;;157.90;;
22565;SDS011;11449;51.330;19.378;2023-12-20T13:53:03;423.80;;;381.80;;
22565;SDS011;11449;51.330;19.378;2023-12-20T13:58:11;477.50;;;432.00;;
22565;SDS011;11449;51.330;19.378;2023-12-20T14:03:19;537.80;;;488.50;;
22565;SDS011;11449;51.330;19.378;2023-12-20T14:08:27;625.60;;;570.70;;
22565;SDS011;11449;51.330;19.378;2023-12-20T14:13:35;543.10;;;490.00;;
22565;SDS011;11449;51.330;19.378;2023-12-20T14:18:43;500.10;;;447.90;;
22565;SDS011;11449;51.330;19.378;2023-12-20T14:23:50;582.90;;;529.90;;
22565;SDS011;11449;51.330;19.378;2023-12-20T14:28:59;690.20;;;632.30;;
22565;SDS011;11449;51.330;19.378;2023-12-20T14:34:07;690.70;;;633.50;;
22565;SDS011;11449;51.330;19.378;2023-12-20T14:39:15;737.30;;;671.60;;
22565;SDS011;11449;51.330;19.378;2023-12-20T14:44:25;736.80;;;677.30;;
22565;SDS011;11449;51.330;19.378;2023-12-20T14:49:27;718.80;;;660.40;;
22565;SDS011;11449;51.330;19.378;2023-12-20T14:54:35;697.50;;;636.60;;
22565;SDS011;11449;51.330;19.378;2023-12-20T14:59:43;676.10;;;614.60;;
22565;SDS011;11449;51.330;19.378;2023-12-20T15:04:51;714.10;;;654.10;;
22565;SDS011;11449;51.330;19.378;2023-12-20T15:09:59;791.50;;;729.80;;
22565;SDS011;11449;51.330;19.378;2023-12-20T15:15:06;813.00;;;750.50;;
22565;SDS011;11449;51.330;19.378;2023-12-20T15:20:17;816.30;;;748.80;;
22565;SDS011;11449;51.330;19.378;2023-12-20T15:25:24;273.50;;;167.90;;
22565;SDS011;11449;51.330;19.378;2023-12-20T15:30:32;308.10;;;209.80;;
22565;SDS011;11449;51.330;19.378;2023-12-20T15:35:40;297.80;;;160.30;;
22565;SDS011;11449;51.330;19.378;2023-12-20T15:40:48;279.70;;;141.10;;
22565;SDS011;11449;51.330;19.378;2023-12-20T15:45:56;236.60;;;120.00;;
22565;SDS011;11449;51.330;19.378;2023-12-20T15:51:07;290.50;;;134.80;;
22565;SDS011;11449;51.330;19.378;2023-12-20T15:56:18;273.50;;;207.90;;
22565;SDS011;11449;51.330;19.378;2023-12-20T16:01:26;230.40;;;175.80;;
22565;SDS011;11449;51.330;19.378;2023-12-20T16:06:34;278.70;;;217.40;;
22565;SDS011;11449;51.330;19.378;2023-12-20T16:11:42;271.10;;;211.10;;
22565;SDS011;11449;51.330;19.378;2023-12-20T16:16:51;243.20;;;191.70;;
22565;SDS011;11449;51.330;19.378;2023-12-20T16:22:00;241.50;;;190.10;;
22565;SDS011;11449;51.330;19.378;2023-12-20T16:27:07;284.50;;;213.90;;
22565;SDS011;11449;51.330;19.378;2023-12-20T16:32:15;294.10;;;237.00;;
22565;SDS011;11449;51.330;19.378;2023-12-20T16:37:23;222.10;;;145.70;;
22565;SDS011;11449;51.330;19.378;2023-12-20T16:42:27;301.60;;;255.70;;
22565;SDS011;11449;51.330;19.378;2023-12-20T16:47:34;335.40;;;200.70;;
22565;SDS011;11449;51.330;19.378;2023-12-20T16:52:42;316.70;;;189.10;;
22565;SDS011;11449;51.330;19.378;2023-12-20T16:57:50;234.50;;;132.70;;
22565;SDS011;11449;51.330;19.378;2023-12-20T17:02:58;230.70;;;125.20;;
22565;SDS011;11449;51.330;19.378;2023-12-20T17:08:06;195.70;;;87.30;;
22565;SDS011;11449;51.330;19.378;2023-12-20T17:13:14;140.00;;;72.20;;
22565;SDS011;11449;51.330;19.378;2023-12-20T17:18:22;115.90;;;56.70;;
22565;SDS011;11449;51.330;19.378;2023-12-20T17:23:30;137.30;;;67.40;;
22565;SDS011;11449;51.330;19.378;2023-12-20T17:28:37;164.30;;;67.70;;
22565;SDS011;11449;51.330;19.378;2023-12-20T17:33:45;157.00;;;72.90;;
22565;SDS011;11449;51.330;19.378;2023-12-20T17:38:53;143.20;;;74.80;;
22565;SDS011;11449;51.330;19.378;2023-12-20T17:44:01;150.50;;;84.20;;
22565;SDS011;11449;51.330;19.378;2023-12-20T17:49:08;142.40;;;79.60;;
22565;SDS011;11449;51.330;19.378;2023-12-20T17:54:16;150.80;;;79.50;;
22565;SDS011;11449;51.330;19.378;2023-12-20T17:59:24;150.40;;;89.30;;
22565;SDS011;11449;51.330;19.378;2023-12-20T18:04:32;188.70;;;102.90;;
22565;SDS011;11449;51.330;19.378;2023-12-20T18:09:40;251.60;;;119.80;;
22565;SDS011;11449;51.330;19.378;2023-12-20T18:14:48;241.10;;;138.10;;
22565;SDS011;11449;51.330;19.378;2023-12-20T18:19:56;217.20;;;140.90;;
22565;SDS011;11449;51.330;19.378;2023-12-20T18:25:03;226.90;;;127.70;;
22565;SDS011;11449;51.330;19.378;2023-12-20T18:30:11;260.70;;;149.60;;
22565;SDS011;11449;51.330;19.378;2023-12-20T18:35:14;276.30;;;157.10;;
22565;SDS011;11449;51.330;19.378;2023-12-20T18:40:22;203.00;;;104.40;;
22565;SDS011;11449;51.330;19.378;2023-12-20T18:45:34;276.30;;;118.10;;
22565;SDS011;11449;51.330;19.378;2023-12-20T18:50:37;243.90;;;112.10;;
22565;SDS011;11449;51.330;19.378;2023-12-20T18:55:45;221.60;;;114.10;;
22565;SDS011;11449;51.330;19.378;2023-12-20T19:00:53;269.10;;;113.70;;
22565;SDS011;11449;51.330;19.378;2023-12-20T19:06:00;227.10;;;124.90;;
22565;SDS011;11449;51.330;19.378;2023-12-20T19:11:10;229.10;;;112.40;;
22565;SDS011;11449;51.330;19.378;2023-12-20T19:16:18;240.10;;;111.40;;
22565;SDS011;11449;51.330;19.378;2023-12-20T19:21:25;232.60;;;116.60;;
22565;SDS011;11449;51.330;19.378;2023-12-20T19:26:33;256.30;;;116.50;;
22565;SDS011;11449;51.330;19.378;2023-12-20T19:31:41;257.90;;;128.20;;
22565;SDS011;11449;51.330;19.378;2023-12-20T19:36:48;206.30;;;104.50;;
22565;SDS011;11449;51.330;19.378;2023-12-20T19:41:51;214.50;;;119.00;;
22565;SDS011;11449;51.330;19.378;2023-12-20T19:46:59;250.80;;;138.40;;
22565;SDS011;11449;51.330;19.378;2023-12-20T19:52:07;206.80;;;111.40;;
22565;SDS011;11449;51.330;19.378;2023-12-20T19:57:14;215.90;;;111.70;;
22565;SDS011;11449;51.330;19.378;2023-12-20T20:02:22;243.40;;;135.20;;
22565;SDS011;11449;51.330;19.378;2023-12-20T20:07:31;259.30;;;130.60;;
22565;SDS011;11449;51.330;19.378;2023-12-20T20:12:38;228.80;;;112.30;;
22565;SDS011;11449;51.330;19.378;2023-12-20T20:17:41;221.00;;;121.60;;
22565;SDS011;11449;51.330;19.378;2023-12-20T20:22:45;194.20;;;104.80;;
22565;SDS011;11449;51.330;19.378;2023-12-20T20:27:52;207.80;;;119.50;;
22565;SDS011;11449;51.330;19.378;2023-12-20T20:33:00;179.30;;;97.00;;
22565;SDS011;11449;51.330;19.378;2023-12-20T20:38:08;230.80;;;124.40;;
22565;SDS011;11449;51.330;19.378;2023-12-20T20:43:16;198.20;;;100.70;;
22565;SDS011;11449;51.330;19.378;2023-12-20T20:48:23;200.80;;;105.40;;
22565;SDS011;11449;51.330;19.378;2023-12-20T20:53:31;294.50;;;142.20;;
22565;SDS011;11449;51.330;19.378;2023-12-20T20:58:39;254.50;;;121.60;;
22565;SDS011;11449;51.330;19.378;2023-12-20T21:03:46;229.90;;;129.20;;
22565;SDS011;11449;51.330;19.378;2023-12-20T21:08:50;229.00;;;117.50;;
22565;SDS011;11449;51.330;19.378;2023-12-20T21:13:58;214.30;;;104.40;;
22565;SDS011;11449;51.330;19.378;2023-12-20T21:19:06;238.60;;;101.20;;
22565;SDS011;11449;51.330;19.378;2023-12-20T21:24:09;192.90;;;92.30;;
22565;SDS011;11449;51.330;19.378;2023-12-20T21:29:15;153.30;;;58.30;;
22565;SDS011;11449;51.330;19.378;2023-12-20T21:34:23;160.50;;;61.20;;
22565;SDS011;11449;51.330;19.378;2023-12-20T21:39:31;179.70;;;55.80;;
22565;SDS011;11449;51.330;19.378;2023-12-20T21:44:34;184.70;;;59.80;;
22565;SDS011;11449;51.330;19.378;2023-12-20T21:49:42;169.60;;;64.50;;
22565;SDS011;11449;51.330;19.378;2023-12-20T21:54:49;149.00;;;62.20;;
22565;SDS011;11449;51.330;19.378;2023-12-20T21:59:57;173.40;;;75.80;;
22565;SDS011;11449;51.330;19.378;2023-12-20T22:05:08;199.80;;;91.60;;
22565;SDS011;11449;51.330;19.378;2023-12-20T22:10:16;199.30;;;82.90;;
22565;SDS011;11449;51.330;19.378;2023-12-20T22:15:23;175.30;;;75.30;;
22565;SDS011;11449;51.330;19.378;2023-12-20T22:20:32;213.40;;;89.80;;
22565;SDS011;11449;51.330;19.378;2023-12-20T22:25:40;171.40;;;68.90;;
22565;SDS011;11449;51.330;19.378;2023-12-20T22:30:48;198.00;;;74.80;;
22565;SDS011;11449;51.330;19.378;2023-12-20T22:35:57;189.20;;;67.50;;
22565;SDS011;11449;51.330;19.378;2023-12-20T22:41:05;193.70;;;65.30;;
22565;SDS011;11449;51.330;19.378;2023-12-20T22:46:16;166.80;;;116.10;;
22565;SDS011;11449;51.330;19.378;2023-12-20T22:51:24;102.60;;;47.00;;
22565;SDS011;11449;51.330;19.378;2023-12-20T22:56:32;116.10;;;65.00;;
22565;SDS011;11449;51.330;19.378;2023-12-20T23:01:40;143.10;;;82.70;;
22565;SDS011;11449;51.330;19.378;2023-12-20T23:06:48;197.00;;;139.00;;
22565;SDS011;11449;51.330;19.378;2023-12-20T23:11:55;257.00;;;184.00;;
22565;SDS011;11449;51.330;19.378;2023-12-20T23:17:03;374.50;;;319.30;;
22565;SDS011;11449;51.330;19.378;2023-12-20T23:22:11;366.10;;;328.80;;
22565;SDS011;11449;51.330;19.378;2023-12-20T23:27:19;265.00;;;158.40;;
22565;SDS011;11449;51.330;19.378;2023-12-20T23:32:28;319.20;;;286.50;;
22565;SDS011;11449;51.330;19.378;2023-12-20T23:37:36;236.60;;;140.30;;
22565;SDS011;11449;51.330;19.378;2023-12-20T23:42:39;253.10;;;138.50;;
22565;SDS011;11449;51.330;19.378;2023-12-20T23:47:42;267.30;;;131.60;;
22565;SDS011;11449;51.330;19.378;2023-12-20T23:52:50;278.80;;;143.70;;
22565;SDS011;11449;51.330;19.378;2023-12-20T23:57:58;170.00;;;85.30;;
